Messwerte Watsonville

Temperatur

Temperatur
°C
1624338000 22.00 22.00
1624341600 23.00 23.00 15
1624345200 0.00 0.00 14
1624348800 1.00 1.00 14
1624352400 2.00 2.00 14
1624356000 3.00 3.00 15
1624359600 4.00 4.00 15
1624363200 5.00 5.00 16
1624366800 6.00 6.00 16
1624370400 7.00 7.00 16
1624374000 8.00 8.00 17
1624377600 9.00 9.00 18
1624381200 10.00 10.00 20
1624384800 11.00 11.00 21
1624388400 12.00 12.00
1624392000 13.00 13.00 20
1624395600 14.00 14.00 21
1624399200 15.00 15.00 20
1624402800 16.00 16.00
1624406400 17.00 17.00 20
1624410000 18.00 18.00 19
1624413600 19.00 19.00 19
1624417200 20.00 20.00
1624420800 21.00 21.00 16

Aktuellste Messwerte

Wettercharakter
Wetter: bedeckt
Temperatur
16 °C
Feuchtigkeit
75 %
Wind
15 km/hWindrichtung: West
Luftdruck
1014 hPa
Messzeit: 22. Juni 2021, 22.00Datenquelle: METAR

Weitere Messstationen in der Nähe

Messstation Temperatur Entfernung
Monterey 17 °C 39 km
San José 18 °C 43 km
San José 18 °C 48 km
Mountain View 18 °C 58 km
Palo Alto 19 °C 65 km
San Carlos Airport 18 °C 75 km
Livermore 16 °C 84 km

Wind

Windrichtung Böen Mittelwind
° km/h km/h
1624338000 22.00 21.00 - 22.00
1624341600 23.00 22.00 - 23.00 350° 5
1624345200 0.00 23.00 - 0.00 290° 5
1624348800 1.00 0.00 - 1.00 290° 5
1624352400 2.00 1.00 - 2.00 350° 5
1624356000 3.00 2.00 - 3.00 0
1624359600 4.00 3.00 - 4.00 0
1624363200 5.00 4.00 - 5.00 0
1624366800 6.00 5.00 - 6.00 230° 5
1624370400 7.00 6.00 - 7.00 0
1624374000 8.00 7.00 - 8.00 0
1624377600 9.00 8.00 - 9.00 200° 10
1624381200 10.00 9.00 - 10.00 250° 15
1624384800 11.00 10.00 - 11.00 270° 30 15
1624388400 12.00 11.00 - 12.00
1624392000 13.00 12.00 - 13.00 250° 30 20
1624395600 14.00 13.00 - 14.00 260° 20
1624399200 15.00 14.00 - 15.00 270° 30 15
1624402800 16.00 15.00 - 16.00
1624406400 17.00 16.00 - 17.00 300° 20
1624410000 18.00 17.00 - 18.00 270° 20
1624413600 19.00 18.00 - 19.00 280° 15
1624417200 20.00 19.00 - 20.00
1624420800 21.00 20.00 - 21.00 270° 15

Ihre Wetterstation

Fehlt Ihre Wetterstation auf unserem Portal?

Schreiben Sie an network@meteonews.ch

Klima

Wann ist es am wärmsten? Wann regnet es am wenigsten? Unsere Klimadaten geben Auskunft.